Time;durP1;ratioP1;P1;durP2;ratioP2;P2;SDS_P1;SDS_P2;PMS_P1;PMS_P2;Temp;Humidity;BMP_temperature;BMP_pressure;BME280_temperature;BME280_humidity;BME280_pressure;Samples;Min_cycle;Max_cycle;Signal;HPM_P1;HPM_P2
2022/11/20 00:01:49;;;;;;;23.13;15.73;;;-1.00;1.00;;;;;;4967400;28;20448;-52
2022/11/20 00:04:15;;;;;;;25.20;15.47;;;;;;;;;;4969012;28;20284;-52
2022/11/20 00:06:41;;;;;;;21.90;13.17;;;-1.10;1.00;;;;;;4969569;28;20188;-51
2022/11/20 00:09:09;;;;;;;25.60;13.97;;;-1.10;1.00;;;;;;4969377;28;20962;-57
2022/11/20 00:11:35;;;;;;;22.20;14.70;;;;;;;;;;4967951;28;20208;-50
2022/11/20 00:14:02;;;;;;;21.07;14.40;;;-1.10;1.00;;;;;;4971718;28;20860;-53
2022/11/20 00:16:30;;;;;;;22.47;13.53;;;-1.10;1.00;;;;;;4969526;28;20487;-54
2022/11/20 00:18:56;;;;;;;29.07;15.80;;;;;;;;;;4968954;28;20453;-53
2022/11/20 00:21:25;;;;;;;24.23;13.87;;;-1.10;1.00;;;;;;4969099;28;20479;-53
2022/11/20 00:23:53;;;;;;;23.10;12.97;;;-1.10;1.00;;;;;;4969070;28;20453;-52
2022/11/20 00:26:20;;;;;;;23.93;13.10;;;-1.10;1.00;;;;;;4964312;28;20456;-53
2022/11/20 00:28:56;;;;;;;23.37;13.00;;;-1.20;1.00;;;;;;4967915;28;20460;-54
2022/11/20 00:31:22;;;;;;;23.30;14.57;;;-1.10;1.00;;;;;;4964180;28;20507;-54
2022/11/20 00:33:48;;;;;;;20.33;14.37;;;;;;;;;;4962104;28;20472;-52
2022/11/20 00:36:17;;;;;;;23.63;13.40;;;-1.20;1.00;;;;;;4957579;28;20441;-53
2022/11/20 00:38:43;;;;;;;24.10;14.20;;;;;;;;;;4964569;28;20453;-53
2022/11/20 00:41:11;;;;;;;23.87;14.97;;;-1.30;1.00;;;;;;4964676;28;20540;-55
2022/11/20 00:43:37;;;;;;;20.80;12.93;;;-1.20;1.00;;;;;;4968944;28;20834;-52
2022/11/20 00:46:09;;;;;;;19.90;13.60;;;-1.30;1.00;;;;;;4967202;28;20984;-53
2022/11/20 00:48:35;;;;;;;26.57;14.40;;;;;;;;;;4965866;28;20511;-52
2022/11/20 00:51:01;;;;;;;26.30;14.67;;;-1.20;1.00;;;;;;4970705;28;20445;-51
2022/11/20 00:53:27;;;;;;;26.43;13.67;;;-1.20;1.00;;;;;;4969401;28;20520;-52
2022/11/20 00:55:54;;;;;;;23.27;14.70;;;-1.30;1.00;;;;;;4967690;28;21258;-51
2022/11/20 00:58:19;;;;;;;20.67;13.30;;;-1.30;1.00;;;;;;4968462;28;20516;-53
2022/11/20 01:00:45;;;;;;;23.40;14.67;;;-1.30;1.00;;;;;;4966209;28;20958;-53
2022/11/20 01:03:11;;;;;;;19.87;12.73;;;;;;;;;;4966305;28;20193;-53
2022/11/20 01:05:37;;;;;;;22.60;13.50;;;;;;;;;;4957520;28;20181;-52
2022/11/20 01:08:02;;;;;;;28.20;15.23;;;-1.30;1.00;;;;;;4963438;28;20456;-50
2022/11/20 01:10:28;;;;;;;22.90;13.50;;;-1.30;1.00;;;;;;4967650;28;20466;-51
2022/11/20 01:15:39;;;;;;;24.50;14.07;;;-1.30;1.00;;;;;;4967843;28;20555;-53
2022/11/20 01:18:05;;;;;;;23.20;13.57;;;;;;;;;;4970768;28;21174;-52
2022/11/20 01:20:35;;;;;;;25.07;13.30;;;-1.30;1.00;;;;;;4968603;28;20220;-53
2022/11/20 01:23:01;;;;;;;23.97;13.90;;;-1.30;1.00;;;;;;4970190;28;20522;-52
2022/11/20 01:25:26;;;;;;;24.23;14.47;;;-1.30;1.00;;;;;;4958343;28;20457;-53
2022/11/20 01:27:52;;;;;;;24.70;14.27;;;-1.30;1.00;;;;;;4967464;28;20443;-53
2022/11/20 01:30:18;;;;;;;33.37;15.27;;;;;;;;;;4961699;28;20199;-53
2022/11/20 01:32:44;;;;;;;24.17;13.83;;;-1.40;1.00;;;;;;4965140;28;20596;-52
2022/11/20 01:35:10;;;;;;;26.63;14.87;;;-1.40;1.00;;;;;;4964360;28;20483;-53
2022/11/20 01:37:35;;;;;;;31.10;15.67;;;-1.40;1.00;;;;;;4965495;28;20294;-52
2022/11/20 01:40:01;;;;;;;29.00;14.93;;;;;;;;;;4966745;28;20962;-53
2022/11/20 01:45:49;;;;;;;25.17;14.73;;;-1.50;1.00;;;;;;4965962;28;20447;-55
2022/11/20 01:48:15;;;;;;;22.27;14.50;;;-1.40;1.00;;;;;;4964513;28;21361;-53
2022/11/20 01:50:42;;;;;;;25.87;14.43;;;-1.40;1.00;;;;;;4966754;28;20460;-52
2022/11/20 01:53:13;;;;;;;21.73;14.27;;;-1.40;1.00;;;;;;4961904;28;20479;-52
2022/11/20 01:55:45;;;;;;;24.67;14.87;;;-1.50;1.00;;;;;;4970094;28;20499;-51
2022/11/20 01:58:11;;;;;;;24.43;13.50;;;-1.50;1.00;;;;;;4964777;28;20548;-53
2022/11/20 02:00:37;;;;;;;20.77;13.40;;;-1.50;1.00;;;;;;4966763;28;20499;-52
2022/11/20 02:03:08;;;;;;;21.20;13.83;;;-1.40;1.00;;;;;;4962500;28;20452;-52
2022/11/20 02:05:52;;;;;;;27.50;13.97;;;-1.40;1.00;;;;;;4961494;28;20722;-55
2022/11/20 02:08:19;;;;;;;17.77;11.27;;;-1.40;1.00;;;;;;4964965;28;20448;-52
2022/11/20 02:10:44;;;;;;;22.90;13.50;;;-1.50;1.00;;;;;;4967294;28;20459;-52
2022/11/20 02:15:55;;;;;;;16.53;11.13;;;-1.60;1.00;;;;;;4967132;28;20256;-53
2022/11/20 02:18:21;;;;;;;16.33;10.93;;;;;;;;;;4964215;28;20466;-54
2022/11/20 02:20:52;;;;;;;20.60;12.07;;;-1.60;1.00;;;;;;4961776;28;20204;-52
2022/11/20 02:23:23;;;;;;;17.03;10.30;;;-1.60;1.00;;;;;;4963546;28;20448;-55
2022/11/20 02:25:52;;;;;;;21.63;11.57;;;-1.60;1.00;;;;;;4965412;28;20530;-52
2022/11/20 02:28:18;;;;;;;15.70;9.87;;;-1.70;1.00;;;;;;4962736;28;20944;-53
2022/11/20 02:30:44;;;;;;;20.90;12.13;;;-1.70;1.00;;;;;;4964934;28;20845;-52
2022/11/20 02:33:09;;;;;;;18.00;12.30;;;-1.70;1.00;;;;;;4964574;28;20463;-52
2022/11/20 02:35:35;;;;;;;18.70;11.57;;;-1.70;1.00;;;;;;4964980;28;20200;-54
2022/11/20 02:38:02;;;;;;;20.30;10.83;;;-1.70;1.00;;;;;;4964302;28;20256;-52
2022/11/20 02:40:28;;;;;;;24.07;11.90;;;;;;;;;;4972980;28;20192;-54
2022/11/20 02:42:55;;;;;;;19.67;13.10;;;-1.80;1.00;;;;;;4970032;28;20511;-51
2022/11/20 02:45:22;;;;;;;19.60;12.30;;;-1.80;1.00;;;;;;4969409;28;20456;-52
2022/11/20 02:47:48;;;;;;;22.13;13.67;;;-1.80;1.00;;;;;;4968221;28;20471;-51
2022/11/20 02:50:14;;;;;;;20.23;12.93;;;-1.80;1.00;;;;;;4971179;28;20459;-55
2022/11/20 02:52:39;;;;;;;20.07;12.30;;;-1.70;1.00;;;;;;4968777;28;20240;-51
2022/11/20 02:55:06;;;;;;;20.37;12.40;;;-1.70;1.00;;;;;;4969736;28;20480;-53
2022/11/20 02:57:32;;;;;;;19.90;12.87;;;;;;;;;;4967197;28;20596;-53
2022/11/20 02:59:57;;;;;;;23.37;14.30;;;-1.80;1.00;;;;;;4970738;28;20954;-51
2022/11/20 03:02:23;;;;;;;23.33;12.10;;;;;;;;;;4969563;28;20507;-53
2022/11/20 03:04:50;;;;;;;17.30;11.50;;;-1.80;1.00;;;;;;4969750;28;20202;-52
2022/11/20 03:07:16;;;;;;;21.63;12.37;;;-1.90;1.00;;;;;;4965487;28;20480;-52
2022/11/20 03:09:42;;;;;;;24.83;12.07;;;-1.90;1.00;;;;;;4969420;28;20491;-52
2022/11/20 03:12:08;;;;;;;21.30;12.00;;;;;;;;;;4968424;28;22264;-51
2022/11/20 03:14:34;;;;;;;23.17;12.93;;;-1.90;1.00;;;;;;4960694;28;20239;-51
2022/11/20 03:17:00;;;;;;;21.90;13.77;;;;;;;;;;4967904;28;21041;-53
2022/11/20 03:19:26;;;;;;;22.27;12.53;;;;;;;;;;4969141;28;20492;-53
2022/11/20 03:21:52;;;;;;;22.07;12.60;;;;;;;;;;4969145;28;20455;-53
2022/11/20 03:24:18;;;;;;;23.87;13.57;;;;;;;;;;4969374;28;20464;-54
2022/11/20 03:26:44;;;;;;;22.77;13.67;;;-2.00;1.00;;;;;;4965581;28;20483;-52
2022/11/20 03:29:09;;;;;;;21.47;12.97;;;-2.00;1.00;;;;;;4968106;28;20468;-54
2022/11/20 03:31:40;;;;;;;17.33;11.67;;;-2.00;1.00;;;;;;4968959;28;20228;-53
2022/11/20 03:34:06;;;;;;;20.53;11.40;;;-2.00;1.00;;;;;;4966636;28;20228;-54
2022/11/20 03:36:32;;;;;;;21.20;11.37;;;;;;;;;;4966250;28;20455;-54
2022/11/20 03:38:58;;;;;;;20.50;12.13;;;-2.00;1.00;;;;;;4966578;28;20551;-51
2022/11/20 03:41:31;;;;;;;20.90;11.60;;;-2.00;1.00;;;;;;4968070;28;20449;-52
2022/11/20 03:43:59;;;;;;;18.57;11.80;;;-2.00;1.00;;;;;;4967251;28;20456;-53
2022/11/20 03:46:26;;;;;;;23.60;13.33;;;-1.90;1.00;;;;;;4968305;28;20455;-51
2022/11/20 03:48:52;;;;;;;20.53;11.30;;;;;;;;;;4969452;28;20812;-52
2022/11/20 03:51:21;;;;;;;16.30;10.67;;;-2.00;1.00;;;;;;4966810;28;20455;-52
2022/11/20 03:53:48;;;;;;;22.13;12.73;;;-2.10;1.00;;;;;;4963990;28;20469;-52
2022/11/20 03:56:17;;;;;;;16.60;10.50;;;-2.00;1.00;;;;;;4968282;28;20787;-52
2022/11/20 03:58:43;;;;;;;21.37;11.23;;;-2.10;1.00;;;;;;4968198;28;20968;-52
2022/11/20 04:01:14;;;;;;;17.53;10.10;;;-2.10;1.00;;;;;;4969108;28;21057;-53
2022/11/20 04:03:41;;;;;;;20.50;10.63;;;-2.10;1.00;;;;;;4969300;28;20445;-52
2022/11/20 04:06:10;;;;;;;18.27;9.87;;;-2.10;1.00;;;;;;4967659;28;20859;-51
2022/11/20 04:08:36;;;;;;;22.97;11.90;;;-2.10;1.00;;;;;;4966265;28;20448;-52
2022/11/20 04:11:17;;;;;;;15.73;10.80;;;-2.20;1.00;;;;;;4965945;28;20452;-51
2022/11/20 04:13:46;;;;;;;18.70;9.57;;;-2.20;1.00;;;;;;4966628;28;20468;-52
2022/11/20 04:16:12;;;;;;;18.73;10.47;;;;;;;;;;4964723;28;20475;-53
2022/11/20 04:18:38;;;;;;;16.00;9.27;;;-2.20;1.00;;;;;;4968614;28;20452;-52
2022/11/20 04:21:04;;;;;;;14.80;9.27;;;-2.20;1.00;;;;;;4967362;28;20957;-54
2022/11/20 04:23:30;;;;;;;20.63;11.37;;;-2.20;1.00;;;;;;4966413;28;20456;-52
2022/11/20 04:26:07;;;;;;;16.30;10.57;;;-2.20;1.00;;;;;;4963435;28;20459;-51
2022/11/20 04:28:33;;;;;;;19.40;11.13;;;-2.20;1.00;;;;;;4967645;28;20244;-51
2022/11/20 04:31:18;;;;;;;19.20;11.10;;;-2.10;1.00;;;;;;4968524;28;20859;-51
2022/11/20 04:33:44;;;;;;;16.00;10.77;;;-2.10;1.00;;;;;;4968405;28;20981;-52
2022/11/20 04:36:13;;;;;;;18.40;11.40;;;-2.20;1.00;;;;;;4963992;28;20455;-53
2022/11/20 04:38:39;;;;;;;21.03;11.77;;;-2.20;1.00;;;;;;4965498;28;20452;-54
2022/11/20 04:41:07;;;;;;;19.13;11.53;;;-2.20;1.00;;;;;;4965043;28;20449;-52
2022/11/20 04:43:33;;;;;;;18.90;10.50;;;-2.20;1.00;;;;;;4967421;28;21130;-51
2022/11/20 04:46:00;;;;;;;18.40;10.77;;;-2.30;1.00;;;;;;4966492;28;20548;-53
2022/11/20 04:48:27;;;;;;;17.80;10.20;;;-2.30;1.00;;;;;;4967135;28;20452;-53
2022/11/20 04:50:53;;;;;;;18.83;11.60;;;;;;;;;;4967013;28;20484;-55
2022/11/20 04:53:20;;;;;;;21.27;12.43;;;-2.30;1.00;;;;;;4963691;28;20464;-52
2022/11/20 04:55:46;;;;;;;21.63;11.47;;;;;;;;;;4968568;28;20455;-52
2022/11/20 04:58:12;;;;;;;23.43;12.83;;;-2.30;1.00;;;;;;4965238;28;20457;-53
2022/11/20 05:00:38;;;;;;;19.03;12.60;;;-2.30;1.00;;;;;;4966200;28;20457;-51
2022/11/20 05:03:04;;;;;;;24.87;11.90;;;;;;;;;;4966283;28;20507;-53
2022/11/20 05:05:30;;;;;;;22.03;12.10;;;;;;;;;;4967051;28;20990;-54
2022/11/20 05:07:57;;;;;;;26.20;12.77;;;-2.30;1.00;;;;;;4967353;28;20457;-52
2022/11/20 05:10:23;;;;;;;20.43;11.77;;;-2.20;1.00;;;;;;4965871;28;20453;-52
2022/11/20 05:12:49;;;;;;;23.40;12.37;;;;;;;;;;4956033;28;20540;-54
2022/11/20 05:15:15;;;;;;;21.43;12.60;;;-2.30;1.00;;;;;;4967279;28;20586;-52
2022/11/20 05:17:41;;;;;;;19.03;11.40;;;;;;;;;;4964570;28;20456;-53
2022/11/20 05:20:07;;;;;;;23.67;11.60;;;;;;;;;;4965275;28;20280;-52
2022/11/20 05:22:33;;;;;;;21.53;10.80;;;-2.40;1.00;;;;;;4961143;28;20437;-52
2022/11/20 05:24:58;;;;;;;19.43;12.23;;;-2.30;1.00;;;;;;4965766;28;20996;-51
2022/11/20 05:27:24;;;;;;;21.73;11.30;;;;;;;;;;4959779;28;20358;-52
2022/11/20 05:29:50;;;;;;;19.80;11.33;;;-2.40;1.00;;;;;;4959484;28;20190;-53
2022/11/20 05:32:15;;;;;;;19.40;10.20;;;-2.40;1.00;;;;;;4964405;28;20978;-52
2022/11/20 05:34:41;;;;;;;20.93;11.13;;;;;;;;;;4962377;28;20225;-51
2022/11/20 05:37:07;;;;;;;19.67;10.90;;;-2.40;1.00;;;;;;4965147;28;20196;-53
2022/11/20 05:39:33;;;;;;;21.00;13.37;;;;;;;;;;4965134;28;20471;-53
2022/11/20 05:44:43;;;;;;;22.30;12.23;;;-2.40;1.00;;;;;;4965259;28;20455;-53
2022/11/20 05:47:09;;;;;;;22.83;11.10;;;;;;;;;;4965391;28;20457;-57
2022/11/20 05:49:35;;;;;;;23.07;11.97;;;;;;;;;;4966397;28;20197;-55
2022/11/20 05:52:01;;;;;;;22.90;12.87;;;;;;;;;;4966412;28;20462;-57
2022/11/20 05:54:27;;;;;;;19.03;11.47;;;;;;;;;;4964073;28;20507;-57
2022/11/20 05:56:53;;;;;;;21.07;12.57;;;;;;;;;;4964591;28;20563;-55
2022/11/20 05:59:19;;;;;;;17.70;10.27;;;-2.10;99.90;;;;;;4967697;28;20459;-57
2022/11/20 06:01:45;;;;;;;22.80;12.70;;;;;;;;;;4963458;28;21030;-55
2022/11/20 06:04:10;;;;;;;20.10;11.97;;;-2.00;1.00;;;;;;4963811;28;20201;-55
2022/11/20 06:06:36;;;;;;;18.83;11.20;;;;;;;;;;4965864;28;20449;-59
2022/11/20 06:09:02;;;;;;;19.90;11.07;;;;;;;;;;4964707;28;20284;-57
2022/11/20 06:11:28;;;;;;;15.70;10.27;;;;;;;;;;4967430;28;20463;-56
2022/11/20 06:13:54;;;;;;;16.60;9.90;;;-2.20;1.00;;;;;;4969120;28;20471;-57
2022/11/20 06:16:20;;;;;;;15.23;9.77;;;-2.30;1.00;;;;;;4970581;28;20592;-56
2022/11/20 06:18:46;;;;;;;13.90;10.10;;;-2.40;1.00;;;;;;4972393;28;20229;-57
2022/11/20 06:21:17;;;;;;;15.97;8.87;;;-2.40;1.00;;;;;;4972313;28;20516;-61
2022/11/20 06:23:44;;;;;;;16.50;9.70;;;-2.40;1.00;;;;;;4969402;28;20487;-56
2022/11/20 06:26:12;;;;;;;13.80;8.87;;;-2.40;1.00;;;;;;4968647;28;20464;-56
2022/11/20 06:28:38;;;;;;;22.00;10.17;;;-2.40;1.00;;;;;;4970297;28;22076;-57
2022/11/20 06:31:05;;;;;;;21.33;11.33;;;-2.50;1.00;;;;;;4969625;28;20495;-56
2022/11/20 06:33:30;;;;;;;20.03;11.20;;;-2.40;1.00;;;;;;4970618;28;20759;-56
2022/11/20 06:35:57;;;;;;;19.63;9.47;;;-2.40;1.00;;;;;;4970601;28;20869;-57
2022/11/20 06:38:27;;;;;;;17.43;11.17;;;-2.50;1.00;;;;;;4969832;28;20629;-56
2022/11/20 06:40:53;;;;;;;18.83;11.20;;;-2.50;1.00;;;;;;4970719;28;20965;-56
2022/11/20 06:43:19;;;;;;;19.90;10.30;;;;;;;;;;4970860;28;20461;-56
2022/11/20 06:45:45;;;;;;;19.00;11.60;;;;;;;;;;4973800;28;20459;-56
2022/11/20 06:48:10;;;;;;;15.60;10.37;;;-2.50;1.00;;;;;;4972754;28;20452;-57
2022/11/20 06:50:37;;;;;;;18.00;10.83;;;-2.50;1.00;;;;;;4967727;28;20449;-55
2022/11/20 06:53:04;;;;;;;17.00;9.47;;;-2.50;1.00;;;;;;4973044;28;20308;-56
2022/11/20 06:55:30;;;;;;;23.20;10.10;;;-2.50;1.00;;;;;;4972583;28;20488;-57
2022/11/20 06:57:56;;;;;;;18.33;10.43;;;;;;;;;;4967899;28;20465;-57
2022/11/20 07:00:22;;;;;;;18.83;10.63;;;-2.40;1.00;;;;;;4970797;28;20467;-56
2022/11/20 07:02:48;;;;;;;21.30;10.77;;;-2.40;1.00;;;;;;4971015;28;20459;-57
2022/11/20 07:05:13;;;;;;;21.70;11.43;;;-2.40;1.00;;;;;;4971745;28;20201;-56
2022/11/20 07:07:39;;;;;;;16.47;9.97;;;-2.40;1.00;;;;;;4971296;28;20631;-58
2022/11/20 07:10:05;;;;;;;19.80;12.00;;;;;;;;;;4970142;28;20189;-57
2022/11/20 07:12:31;;;;;;;17.40;11.63;;;;;;;;;;4969857;28;20714;-56
2022/11/20 07:14:57;;;;;;;20.47;10.70;;;-2.40;1.00;;;;;;4970854;28;20479;-56
2022/11/20 07:17:23;;;;;;;23.53;11.10;;;;;;;;;;4966682;28;21012;-55
2022/11/20 07:19:49;;;;;;;20.43;11.43;;;-2.30;1.00;;;;;;4969929;28;20651;-57
2022/11/20 07:22:15;;;;;;;22.47;12.50;;;;;;;;;;4970588;28;20456;-59
2022/11/20 07:24:41;;;;;;;24.13;13.23;;;;;;;;;;4971411;28;20198;-55
2022/11/20 07:27:06;;;;;;;20.30;11.70;;;-2.20;1.00;;;;;;4964980;28;21038;-57
2022/11/20 07:29:32;;;;;;;25.83;12.90;;;;;;;;;;4968298;28;20456;-54
2022/11/20 07:31:58;;;;;;;23.07;12.87;;;-2.20;1.00;;;;;;4969812;28;20232;-57
2022/11/20 07:34:23;;;;;;;28.50;14.20;;;-2.10;1.00;;;;;;4968884;28;20480;-58
2022/11/20 07:36:49;;;;;;;21.70;13.70;;;;;;;;;;4968922;28;20204;-57
2022/11/20 07:39:15;;;;;;;23.90;13.10;;;-1.90;1.00;;;;;;4966884;28;20522;-57
2022/11/20 07:41:41;;;;;;;23.77;13.40;;;;;;;;;;4968554;28;20468;-56
2022/11/20 07:44:06;;;;;;;23.00;13.07;;;-1.90;1.00;;;;;;4969278;28;20197;-56
2022/11/20 07:46:32;;;;;;;21.53;13.67;;;;;;;;;;4967723;28;20488;-56
2022/11/20 07:48:58;;;;;;;27.07;13.07;;;;;;;;;;4969213;28;20208;-59
2022/11/20 07:51:25;;;;;;;23.37;13.20;;;;;;;;;;4967529;28;20461;-58
2022/11/20 07:53:53;;;;;;;22.40;13.73;;;-1.80;1.00;;;;;;4966821;28;20544;-56
2022/11/20 07:56:18;;;;;;;26.17;14.40;;;;;;;;;;4964760;28;20507;-57
2022/11/20 07:58:44;;;;;;;21.30;11.60;;;;;;;;;;4963741;28;20939;-55
2022/11/20 08:01:10;;;;;;;32.40;15.73;;;-1.60;1.00;;;;;;4967703;28;20547;-57
2022/11/20 08:03:39;;;;;;;20.07;12.83;;;;;;;;;;4968990;28;20460;-56
2022/11/20 08:06:05;;;;;;;28.13;14.40;;;;;;;;;;4971444;28;20198;-57
2022/11/20 08:08:31;;;;;;;24.63;13.57;;;;;;;;;;4970238;28;20455;-56
2022/11/20 08:14:11;;;;;;;26.27;15.53;;;-1.40;1.00;;;;;;4969885;28;20452;-57
2022/11/20 08:16:27;;;;;;;28.43;13.57;;;-1.20;1.00;;;;;;4969977;28;20448;-56
2022/11/20 08:18:53;;;;;;;24.43;15.33;;;-1.30;1.00;;;;;;4972270;28;20445;-62
2022/11/20 08:21:19;;;;;;;27.30;15.80;;;;;;;;;;4972568;28;20870;-63
2022/11/20 08:23:45;;;;;;;25.20;15.33;;;-1.30;1.00;;;;;;4971032;28;20280;-62
2022/11/20 08:26:10;;;;;;;31.20;16.53;;;-1.20;1.00;;;;;;4970121;28;20457;-60
2022/11/20 08:28:36;;;;;;;26.70;15.60;;;-1.00;1.00;;;;;;4969334;28;20651;-60
2022/11/20 08:31:03;;;;;;;33.37;17.57;;;-1.00;1.00;;;;;;4971346;28;20221;-61
2022/11/20 08:33:29;;;;;;;24.70;14.00;;;-0.80;1.00;;;;;;4969318;28;20454;-61
2022/11/20 08:35:59;;;;;;;31.63;17.70;;;-0.70;1.00;;;;;;4970356;28;20542;-59
2022/11/20 08:38:25;;;;;;;30.53;16.07;;;-0.50;1.00;;;;;;4968318;28;20890;-58
2022/11/20 08:43:35;;;;;;;27.20;15.83;;;-0.30;1.00;;;;;;4970370;28;20358;-59
2022/11/20 08:46:01;;;;;;;28.53;16.20;;;-0.20;1.00;;;;;;4968327;28;20452;-58
2022/11/20 08:48:26;;;;;;;27.20;15.13;;;-0.10;1.00;;;;;;4970925;28;20187;-58
2022/11/20 08:50:52;;;;;;;32.50;19.50;;;-0.10;1.00;;;;;;4969612;28;20190;-57
2022/11/20 08:53:17;;;;;;;30.30;17.00;;;-0.10;1.00;;;;;;4968726;28;20210;-59
2022/11/20 08:55:43;;;;;;;26.17;16.20;;;0.00;1.00;;;;;;4968842;28;20213;-60
2022/11/20 08:58:09;;;;;;;26.80;16.83;;;;;;;;;;4968008;28;20196;-59
2022/11/20 09:00:35;;;;;;;32.00;17.33;;;0.30;1.00;;;;;;4968908;28;20184;-57
2022/11/20 09:03:01;;;;;;;28.57;16.37;;;0.40;1.00;;;;;;4969777;28;20451;-59
2022/11/20 09:05:27;;;;;;;29.47;15.53;;;0.40;1.00;;;;;;4967718;28;20250;-59
2022/11/20 09:07:56;;;;;;;29.30;16.13;;;0.60;1.00;;;;;;4970593;28;20474;-59
2022/11/20 09:10:22;;;;;;;30.93;17.97;;;0.70;1.00;;;;;;4969219;28;20460;-60
2022/11/20 09:12:51;;;;;;;29.87;16.40;;;0.80;1.00;;;;;;4967694;28;20472;-57
2022/11/20 09:15:18;;;;;;;26.70;16.73;;;0.80;1.00;;;;;;4964713;28;20216;-58
2022/11/20 09:18:00;;;;;;;27.73;15.50;;;0.90;1.00;;;;;;4968058;28;20453;-57
2022/11/20 09:20:28;;;;;;;24.43;16.00;;;1.10;1.00;;;;;;4967763;28;20452;-57
2022/11/20 09:22:55;;;;;;;26.83;16.63;;;1.10;1.00;;;;;;4968311;28;20457;-58
2022/11/20 09:25:21;;;;;;;23.50;14.70;;;1.30;1.00;;;;;;4970072;28;20452;-57
2022/11/20 09:27:46;;;;;;;24.10;14.93;;;1.80;1.00;;;;;;4965883;28;21704;-59
2022/11/20 09:30:16;;;;;;;26.00;16.10;;;2.30;1.00;;;;;;4964391;28;20432;-59
2022/11/20 09:32:42;;;;;;;24.70;14.30;;;2.60;1.00;;;;;;4967773;28;20232;-56
2022/11/20 09:35:10;;;;;;;22.70;14.57;;;2.70;1.00;;;;;;4968458;28;20452;-58
2022/11/20 09:37:35;;;;;;;25.47;15.80;;;2.80;1.00;;;;;;4968849;28;20451;-60
2022/11/20 09:40:01;;;;;;;21.17;13.47;;;2.70;1.00;;;;;;4967175;28;20815;-58
2022/11/20 09:43:20;;;;;;;23.20;14.37;;;2.50;1.00;;;;;;4969559;28;20188;-58
2022/11/20 09:46:20;;;;;;;24.07;13.13;;;2.30;1.00;;;;;;4947445;29;20280;-57
2022/11/20 09:49:15;;;;;;;23.77;13.23;;;2.20;1.00;;;;;;4962891;28;20464;-59
2022/11/20 09:51:52;;;;;;;22.57;13.90;;;2.20;1.00;;;;;;4969010;28;20787;-58
2022/11/20 09:54:19;;;;;;;22.33;14.23;;;;;;;;;;4966980;28;20865;-58
2022/11/20 09:56:56;;;;;;;21.63;14.23;;;2.30;1.00;;;;;;4966204;28;20555;-57
2022/11/20 09:59:41;;;;;;;22.17;13.40;;;2.30;1.00;;;;;;4968747;28;20515;-59
2022/11/20 10:02:26;;;;;;;20.67;13.30;;;2.40;1.00;;;;;;4969133;28;20449;-60
2022/11/20 10:04:58;;;;;;;21.37;13.70;;;2.40;1.00;;;;;;4968604;28;20957;-59
2022/11/20 10:08:03;;;;;;;21.70;14.17;;;2.50;1.00;;;;;;4966049;28;20455;-60
2022/11/20 10:10:53;;;;;;;22.07;14.33;;;2.60;1.00;;;;;;4957202;28;20495;-57
2022/11/20 10:13:40;;;;;;;23.50;13.23;;;2.60;1.00;;;;;;4967414;28;21274;-60
2022/11/20 10:16:33;;;;;;;23.23;13.00;;;2.70;1.00;;;;;;4966637;28;20893;-58
2022/11/20 10:18:59;;;;;;;21.83;13.20;;;;;;;;;;4966687;28;20449;-58
2022/11/20 10:21:54;;;;;;;21.87;14.20;;;2.90;1.00;;;;;;4969450;28;20772;-59
2022/11/20 10:24:35;;;;;;;21.17;12.97;;;2.90;1.00;;;;;;4965537;28;20916;-58
2022/11/20 10:27:40;;;;;;;18.70;12.00;;;3.20;1.00;;;;;;4962693;28;20481;-59
2022/11/20 10:30:05;;;;;;;16.83;10.87;;;3.10;1.00;;;;;;4966633;28;20454;-60
2022/11/20 10:32:38;;;;;;;19.23;10.97;;;3.10;1.00;;;;;;4966932;28;20473;-60
2022/11/20 10:35:22;;;;;;;21.40;12.40;;;3.30;1.00;;;;;;4968940;28;20312;-58
2022/11/20 10:37:59;;;;;;;19.07;10.60;;;3.40;1.00;;;;;;4966683;28;20531;-58
2022/11/20 10:40:38;;;;;;;17.57;11.53;;;3.40;1.00;;;;;;4969189;28;20477;-59
2022/11/20 10:43:28;;;;;;;15.60;10.30;;;3.50;1.00;;;;;;4966784;28;20455;-60
2022/11/20 10:46:03;;;;;;;14.40;9.90;;;3.60;1.00;;;;;;4967965;28;20487;-59
2022/11/20 10:48:29;;;;;;;18.77;9.77;;;;;;;;;;4966559;28;20440;-59
2022/11/20 10:51:32;;;;;;;13.77;9.47;;;3.90;1.00;;;;;;4967397;28;20449;-58
2022/11/20 10:54:17;;;;;;;12.53;9.27;;;4.20;1.00;;;;;;4968220;28;20469;-58
2022/11/20 10:56:48;;;;;;;13.60;9.37;;;4.20;1.00;;;;;;4967843;28;20878;-58
2022/11/20 10:59:44;;;;;;;15.27;10.77;;;4.20;1.00;;;;;;4966109;28;20512;-59
2022/11/20 11:02:24;;;;;;;14.30;9.50;;;4.30;1.00;;;;;;4972005;28;20487;-60
2022/11/20 11:04:53;;;;;;;15.73;10.23;;;4.50;1.00;;;;;;4970352;28;20523;-59
2022/11/20 11:07:22;;;;;;;16.90;10.70;;;4.60;1.00;;;;;;4968427;28;21081;-59
2022/11/20 11:09:51;;;;;;;14.23;9.43;;;4.60;1.00;;;;;;4971689;28;20452;-58
2022/11/20 11:12:18;;;;;;;13.90;9.30;;;4.70;1.00;;;;;;4969430;28;21016;-58
2022/11/20 11:14:47;;;;;;;19.77;9.03;;;4.60;1.00;;;;;;4969111;28;20446;-59
2022/11/20 11:17:45;;;;;;;15.03;9.30;;;4.70;1.00;;;;;;4969006;28;20563;-58
2022/11/20 11:20:18;;;;;;;14.10;9.33;;;4.80;1.00;;;;;;4972167;28;20458;-59
2022/11/20 11:23:04;;;;;;;14.77;9.53;;;4.80;1.00;;;;;;4972628;28;20886;-60
2022/11/20 11:25:30;;;;;;;13.97;9.40;;;;;;;;;;4965321;28;20472;-60
2022/11/20 11:28:19;;;;;;;13.07;8.90;;;5.00;1.00;;;;;;4968226;28;20480;-59
2022/11/20 11:30:45;;;;;;;12.63;9.23;;;5.00;1.00;;;;;;4970704;28;20545;-59
2022/11/20 11:33:18;;;;;;;14.23;10.17;;;4.80;1.00;;;;;;4968523;28;20449;-61
2022/11/20 11:35:58;;;;;;;14.13;8.00;;;4.70;1.00;;;;;;4968187;28;20492;-59
2022/11/20 11:38:38;;;;;;;12.03;9.07;;;4.60;1.00;;;;;;4967492;28;20477;-58
2022/11/20 11:41:06;;;;;;;23.07;13.00;;;4.20;1.00;;;;;;4968107;28;20613;-57
2022/11/20 11:46:30;;;;;;;20.10;12.50;;;4.00;1.00;;;;;;4970426;28;20456;-56
2022/11/20 11:49:13;;;;;;;23.20;14.53;;;4.00;1.00;;;;;;4970337;28;20453;-59
2022/11/20 11:52:03;;;;;;;8.93;6.33;;;3.90;1.00;;;;;;4971450;28;20452;-58
2022/11/20 11:54:45;;;;;;;9.17;6.37;;;3.60;1.00;;;;;;4965400;28;20832;-57
2022/11/20 11:57:23;;;;;;;8.20;5.90;;;3.50;1.00;;;;;;4971342;28;20457;-57
2022/11/20 12:00:08;;;;;;;9.47;6.90;;;3.80;1.00;;;;;;4970607;28;20453;-57
2022/11/20 12:02:44;;;;;;;11.77;8.33;;;3.90;1.00;;;;;;4971941;28;20520;-57
2022/11/20 12:05:24;;;;;;;9.50;7.43;;;4.00;1.00;;;;;;4968020;28;20548;-56
2022/11/20 12:07:53;;;;;;;13.20;7.30;;;4.00;1.00;;;;;;4970706;28;20626;-58
2022/11/20 12:10:23;;;;;;;12.50;8.77;;;3.90;1.00;;;;;;4970534;28;20968;-56
2022/11/20 12:13:00;;;;;;;11.30;7.07;;;3.90;1.00;;;;;;4969638;28;20448;-59
2022/11/20 12:15:29;;;;;;;11.40;6.83;;;;;;;;;;4970014;28;20507;-58
2022/11/20 12:17:55;;;;;;;13.07;7.47;;;3.40;1.00;;;;;;4971045;28;20448;-55
2022/11/20 12:20:27;;;;;;;9.83;6.93;;;3.30;1.00;;;;;;4962192;28;20457;-58
2022/11/20 12:23:17;;;;;;;8.83;6.37;;;3.40;1.00;;;;;;4968751;28;20782;-55
2022/11/20 12:25:47;;;;;;;11.83;8.50;;;3.40;1.00;;;;;;4968985;28;20469;-60
2022/11/20 12:28:28;;;;;;;10.80;7.30;;;3.80;1.00;;;;;;4970213;28;20464;-57
2022/11/20 12:31:27;;;;;;;10.40;7.30;;;3.90;1.00;;;;;;4970318;28;20473;-57
2022/11/20 12:34:16;;;;;;;11.03;6.83;;;3.80;1.00;;;;;;4968251;28;20471;-56
2022/11/20 12:37:38;;;;;;;10.20;6.77;;;3.50;1.00;;;;;;4966052;28;20465;-58
2022/11/20 12:40:31;;;;;;;11.00;8.00;;;3.50;1.00;;;;;;4948908;29;20454;-57
2022/11/20 12:46:38;;;;;;;12.50;7.63;;;3.30;37.30;;;;;;4971193;28;20477;-57
2022/11/20 12:49:22;;;;;;;10.80;6.47;;;3.30;99.90;;;;;;4969046;28;21716;-58
2022/11/20 12:52:00;;;;;;;10.07;7.00;;;3.30;99.90;;;;;;4970613;28;20437;-57
2022/11/20 12:54:26;;;;;;;10.60;7.53;;;3.30;99.90;;;;;;4969176;28;20535;-57
2022/11/20 12:57:09;;;;;;;9.30;6.60;;;3.30;99.90;;;;;;4968571;28;20835;-56
2022/11/20 13:00:00;;;;;;;9.93;6.27;;;3.30;99.90;;;;;;4969897;28;20319;-57
2022/11/20 13:03:03;;;;;;;9.20;6.57;;;3.30;99.90;;;;;;4970167;28;20420;-57
2022/11/20 13:05:39;;;;;;;8.33;6.47;;;3.10;99.90;;;;;;4970265;28;20455;-56
2022/11/20 13:08:14;;;;;;;7.70;6.10;;;3.20;99.90;;;;;;4968463;28;20452;-57
2022/11/20 13:10:56;;;;;;;9.90;7.67;;;3.20;99.90;;;;;;4970817;28;20522;-56
2022/11/20 13:13:43;;;;;;;10.70;7.53;;;3.40;99.90;;;;;;4968728;28;20456;-56
2022/11/20 13:16:46;;;;;;;10.40;7.87;;;3.50;99.90;;;;;;4970519;28;21073;-59
2022/11/20 13:19:14;;;;;;;10.90;7.57;;;3.50;99.90;;;;;;4967329;28;20462;-56
2022/11/20 13:21:42;;;;;;;10.33;6.50;;;3.40;99.90;;;;;;4970180;28;20460;-54
2022/11/20 13:24:30;;;;;;;9.17;6.80;;;3.30;99.90;;;;;;4970015;28;20856;-57
2022/11/20 13:27:19;;;;;;;7.53;5.10;;;3.20;99.90;;;;;;4966762;28;20448;-57
2022/11/20 13:29:47;;;;;;;9.07;5.50;;;3.10;1.00;;;;;;4970286;28;20448;-57
2022/11/20 13:32:17;;;;;;;8.93;6.23;;;3.10;1.00;;;;;;4969035;28;20551;-56
2022/11/20 13:34:53;;;;;;;7.17;5.77;;;3.10;1.00;;;;;;4968911;28;20453;-56
2022/11/20 13:37:33;;;;;;;6.73;5.03;;;3.00;1.00;;;;;;4969397;28;20440;-58
2022/11/20 13:40:12;;;;;;;9.90;6.53;;;3.20;1.00;;;;;;4968162;28;20887;-57
2022/11/20 13:42:51;;;;;;;7.00;5.03;;;3.20;1.00;;;;;;4968650;28;20852;-57
2022/11/20 13:45:27;;;;;;;6.83;5.00;;;3.00;1.00;;;;;;4968968;28;20451;-57